createdAt,value
2023-02-11T00:01:41.235Z,101.50
2023-02-11T00:04:10.350Z,93.40
2023-02-11T00:06:39.079Z,78.80
2023-02-11T00:09:07.966Z,68.90
2023-02-11T00:11:36.949Z,61.30
2023-02-11T00:14:08.615Z,66.20
2023-02-11T00:16:38.224Z,59.90
2023-02-11T00:19:07.666Z,66.60
2023-02-11T00:21:36.322Z,65.20
2023-02-11T00:24:05.651Z,74.40
2023-02-11T00:26:36.218Z,63.90
2023-02-11T00:29:07.454Z,65.00
2023-02-11T00:31:36.997Z,64.70
2023-02-11T00:34:07.344Z,68.00
2023-02-11T00:36:36.885Z,70.10
2023-02-11T00:39:06.057Z,67.10
2023-02-11T00:41:36.854Z,63.30
2023-02-11T00:44:06.098Z,60.20
2023-02-11T00:46:37.363Z,59.20
2023-02-11T00:49:06.215Z,56.10
2023-02-11T00:51:35.182Z,56.60
2023-02-11T00:54:06.265Z,62.80
2023-02-11T00:56:37.930Z,58.90
2023-02-11T00:59:06.946Z,58.70
2023-02-11T01:01:35.766Z,60.10
2023-02-11T01:04:04.745Z,57.30
2023-02-11T01:06:33.736Z,58.10
2023-02-11T01:09:02.308Z,61.30
2023-02-11T01:11:31.264Z,56.40
2023-02-11T01:14:00.594Z,55.60
2023-02-11T01:16:32.124Z,57.50
2023-02-11T01:19:02.042Z,57.10
2023-02-11T01:21:30.651Z,52.90
2023-02-11T01:23:59.311Z,60.10
2023-02-11T01:26:31.895Z,56.40
2023-02-11T01:29:01.417Z,65.70
2023-02-11T01:31:31.976Z,69.10
2023-02-11T01:34:02.894Z,75.80
2023-02-11T01:36:31.665Z,82.90
2023-02-11T01:39:02.162Z,78.20
2023-02-11T01:41:31.138Z,75.20
2023-02-11T01:44:20.152Z,77.40
2023-02-11T01:46:51.075Z,103.20
2023-02-11T01:49:38.460Z,264.80
2023-02-11T01:52:12.774Z,95.50
2023-02-11T01:55:08.414Z,71.30
2023-02-11T01:57:40.573Z,79.60
2023-02-11T02:00:20.640Z,66.50
2023-02-11T02:03:08.450Z,83.80
2023-02-11T02:05:49.553Z,67.90
2023-02-11T02:08:51.971Z,71.10
2023-02-11T02:11:20.700Z,72.20
2023-02-11T02:13:49.701Z,79.00
2023-02-11T02:16:22.427Z,54.20
2023-02-11T02:19:06.567Z,92.60
2023-02-11T02:21:41.479Z,144.60
2023-02-11T02:24:36.594Z,119.20
2023-02-11T02:27:41.167Z,79.10
2023-02-11T02:30:33.388Z,75.60
2023-02-11T02:33:25.719Z,76.00
2023-02-11T02:35:58.074Z,69.20
2023-02-11T02:38:52.986Z,69.70
2023-02-11T02:41:27.569Z,65.40
2023-02-11T02:43:56.827Z,74.40
2023-02-11T02:46:29.246Z,66.70
2023-02-11T02:48:59.206Z,63.10
2023-02-11T02:54:42.970Z,59.10
2023-02-11T02:57:20.816Z,66.50
2023-02-11T03:00:15.941Z,61.30
2023-02-11T03:02:48.199Z,64.60
2023-02-11T03:05:26.683Z,64.30
2023-02-11T03:08:08.711Z,58.00
2023-02-11T03:10:46.160Z,92.30
2023-02-11T03:13:18.441Z,129.00
2023-02-11T03:15:51.865Z,79.60
2023-02-11T03:18:24.970Z,70.70
2023-02-11T03:20:56.078Z,74.70
2023-02-11T03:23:42.881Z,61.00
2023-02-11T03:26:23.656Z,57.50
2023-02-11T03:29:10.493Z,60.10
2023-02-11T03:32:16.603Z,54.20
2023-02-11T03:34:54.342Z,55.50
2023-02-11T03:37:45.360Z,52.30
2023-02-11T03:40:20.170Z,60.00
2023-02-11T03:42:59.438Z,53.40
2023-02-11T03:48:05.411Z,56.70
2023-02-11T03:50:37.837Z,47.50
2023-02-11T03:53:08.289Z,50.70
2023-02-11T03:55:40.220Z,48.00
2023-02-11T03:58:09.468Z,55.40
2023-02-11T04:00:41.292Z,52.50
2023-02-11T04:03:11.798Z,51.40
2023-02-11T04:05:40.955Z,56.10
2023-02-11T04:08:09.858Z,60.30
2023-02-11T04:10:38.965Z,56.40
2023-02-11T04:13:07.958Z,48.10
2023-02-11T04:15:36.666Z,59.60
2023-02-11T04:18:05.450Z,64.00
2023-02-11T04:20:34.645Z,62.80
2023-02-11T04:23:03.561Z,60.10
2023-02-11T04:25:32.519Z,62.90
2023-02-11T04:28:01.279Z,65.80
2023-02-11T04:30:30.355Z,67.40
2023-02-11T04:33:00.053Z,94.40
2023-02-11T04:37:57.865Z,80.20
2023-02-11T04:40:26.803Z,76.60
2023-02-11T04:42:55.749Z,72.00
2023-02-11T04:45:24.762Z,64.90
2023-02-11T04:47:53.844Z,49.10
2023-02-11T04:50:23.041Z,44.20
2023-02-11T04:52:52.101Z,64.00
2023-02-11T04:55:21.137Z,62.90
2023-02-11T04:57:49.737Z,63.80
2023-02-11T05:00:18.384Z,59.40
2023-02-11T05:02:47.178Z,60.70
2023-02-11T05:05:15.946Z,58.10
2023-02-11T05:07:44.960Z,60.50
2023-02-11T05:10:14.194Z,56.10
2023-02-11T05:12:43.514Z,48.60
2023-02-11T05:15:12.160Z,66.70
2023-02-11T05:17:41.228Z,65.10
2023-02-11T05:20:11.071Z,64.30
2023-02-11T05:22:39.687Z,62.40
2023-02-11T05:25:09.356Z,66.60
2023-02-11T05:30:07.936Z,70.60
2023-02-11T05:32:36.800Z,66.30
2023-02-11T05:35:06.207Z,68.20
2023-02-11T05:37:35.716Z,65.30
2023-02-11T05:40:05.340Z,64.00
2023-02-11T05:42:34.514Z,79.20
2023-02-11T05:45:04.099Z,68.30
2023-02-11T05:47:33.688Z,56.20
2023-02-11T05:50:02.384Z,66.30
2023-02-11T05:52:31.625Z,63.60
2023-02-11T05:55:00.635Z,69.10
2023-02-11T05:57:29.709Z,76.90
2023-02-11T05:59:58.769Z,71.90
2023-02-11T06:02:27.871Z,56.70
2023-02-11T06:04:56.902Z,66.60
2023-02-11T06:07:25.847Z,64.30
2023-02-11T06:09:54.756Z,64.70
2023-02-11T06:12:23.807Z,50.70
2023-02-11T06:14:53.072Z,64.00
2023-02-11T06:17:21.743Z,62.40
2023-02-11T06:19:50.526Z,63.60
2023-02-11T06:22:19.543Z,61.50
2023-02-11T06:25:00.919Z,56.00
2023-02-11T06:27:31.184Z,53.40
2023-02-11T06:30:00.012Z,43.10
2023-02-11T06:32:43.207Z,51.20
2023-02-11T06:35:14.733Z,75.30
2023-02-11T06:40:12.971Z,60.40
2023-02-11T06:42:43.389Z,65.50
2023-02-11T06:45:13.627Z,122.40
2023-02-11T06:50:14.289Z,80.10
2023-02-11T06:52:43.464Z,75.90
2023-02-11T06:55:12.169Z,70.10
2023-02-11T06:57:41.268Z,65.10
2023-02-11T07:00:10.680Z,54.70
2023-02-11T07:02:39.377Z,67.40
2023-02-11T07:05:09.274Z,67.90
2023-02-11T07:07:38.378Z,53.00
2023-02-11T07:10:07.246Z,42.00
2023-02-11T07:12:36.276Z,38.60
2023-02-11T07:15:05.754Z,36.90
2023-02-11T07:17:35.970Z,31.10
2023-02-11T07:20:05.624Z,32.20
2023-02-11T07:22:34.947Z,33.70
2023-02-11T07:25:04.668Z,31.30
2023-02-11T07:30:06.860Z,34.10
2023-02-11T07:32:36.748Z,30.70
2023-02-11T07:35:05.970Z,27.90
2023-02-11T07:37:35.919Z,25.90
2023-02-11T07:40:08.406Z,27.30
2023-02-11T07:42:37.500Z,28.20
2023-02-11T07:45:07.522Z,24.40
2023-02-11T07:47:38.929Z,23.80
2023-02-11T07:50:09.108Z,25.20
2023-02-11T07:52:37.878Z,27.00
2023-02-11T07:55:06.760Z,40.60
2023-02-11T07:57:36.803Z,35.70
2023-02-11T08:00:06.568Z,29.10
2023-02-11T08:02:39.965Z,37.90
2023-02-11T08:05:09.315Z,38.80
2023-02-11T08:07:38.150Z,40.80
2023-02-11T08:10:07.697Z,30.40
2023-02-11T08:12:36.547Z,27.00
2023-02-11T08:15:05.963Z,20.50
2023-02-11T08:17:37.023Z,28.10
2023-02-11T08:20:07.076Z,27.80
2023-02-11T08:22:36.151Z,26.10
2023-02-11T08:25:05.554Z,26.50
2023-02-11T08:27:34.826Z,18.40
2023-02-11T08:30:04.198Z,28.80
2023-02-11T08:32:57.680Z,24.60
2023-02-11T08:35:47.969Z,23.40
2023-02-11T08:38:16.808Z,20.00
2023-02-11T08:40:45.746Z,25.50
2023-02-11T08:43:14.809Z,24.30
2023-02-11T08:45:43.771Z,27.40
2023-02-11T08:48:12.483Z,25.70
2023-02-11T08:50:42.919Z,25.90
2023-02-11T08:53:11.971Z,30.30
2023-02-11T08:55:40.654Z,28.80
2023-02-11T08:58:10.048Z,30.30
2023-02-11T09:00:38.856Z,25.60
2023-02-11T09:03:08.754Z,28.00
2023-02-11T09:08:10.911Z,27.00
2023-02-11T09:10:40.083Z,29.10
2023-02-11T09:13:09.691Z,27.90
2023-02-11T09:15:38.409Z,37.60
2023-02-11T09:18:07.853Z,26.60
2023-02-11T09:20:36.473Z,25.30
2023-02-11T09:23:05.251Z,22.80
2023-02-11T09:25:34.058Z,24.10
2023-02-11T09:28:02.698Z,24.40
2023-02-11T09:30:31.545Z,21.50
2023-02-11T09:33:00.258Z,23.70
2023-02-11T09:35:29.043Z,26.00
2023-02-11T09:37:57.859Z,23.20
2023-02-11T09:40:26.947Z,21.00
2023-02-11T09:43:12.167Z,21.70
2023-02-11T09:45:41.239Z,24.30
2023-02-11T09:48:20.665Z,23.40
2023-02-11T09:51:04.037Z,16.30
2023-02-11T09:53:42.107Z,20.50
2023-02-11T09:56:13.954Z,20.40
2023-02-11T09:58:45.307Z,20.40
2023-02-11T10:01:46.438Z,21.80
2023-02-11T10:04:35.814Z,20.30
2023-02-11T10:07:34.728Z,18.10
2023-02-11T10:10:40.942Z,16.60
2023-02-11T10:13:32.797Z,25.80
2023-02-11T10:16:22.963Z,19.70
2023-02-11T10:21:57.122Z,22.30
2023-02-11T10:24:30.678Z,19.30
2023-02-11T10:27:02.043Z,17.20
2023-02-11T10:29:41.080Z,19.50
2023-02-11T10:32:45.000Z,25.60
2023-02-11T10:35:21.964Z,21.90
2023-02-11T10:37:51.266Z,21.20
2023-02-11T10:40:26.697Z,20.30
2023-02-11T10:42:59.929Z,22.20
2023-02-11T10:45:49.286Z,24.10
2023-02-11T10:48:39.968Z,19.60
2023-02-11T10:51:18.720Z,25.20
2023-02-11T10:53:50.538Z,24.40
2023-02-11T10:56:27.141Z,33.90
2023-02-11T10:59:21.479Z,26.60
2023-02-11T11:01:56.452Z,23.00
2023-02-11T11:04:38.093Z,19.40
2023-02-11T11:07:20.668Z,27.40
2023-02-11T11:09:57.102Z,20.80
2023-02-11T11:12:47.829Z,29.70
2023-02-11T11:15:19.159Z,45.10
2023-02-11T11:18:20.865Z,25.50
2023-02-11T11:21:02.550Z,24.30
2023-02-11T11:23:32.021Z,28.10
2023-02-11T11:26:15.310Z,21.80
2023-02-11T11:28:47.644Z,22.20
2023-02-11T11:31:25.885Z,30.30
2023-02-11T11:34:00.963Z,31.60
2023-02-11T11:36:36.732Z,25.60
2023-02-11T11:39:25.566Z,29.70
2023-02-11T11:42:06.995Z,59.20
2023-02-11T11:44:37.410Z,25.40
2023-02-11T11:49:42.817Z,22.10
2023-02-11T11:52:42.466Z,25.50
2023-02-11T11:55:23.643Z,23.40
2023-02-11T11:57:52.613Z,26.00
2023-02-11T12:00:28.906Z,34.30
2023-02-11T12:03:01.269Z,26.70
2023-02-11T12:05:44.782Z,24.20
2023-02-11T12:08:43.556Z,24.30
2023-02-11T12:11:28.374Z,36.70
2023-02-11T12:14:39.286Z,33.90
2023-02-11T12:17:23.492Z,25.50
2023-02-11T12:19:58.090Z,36.40
2023-02-11T12:22:36.011Z,40.30
2023-02-11T12:25:42.041Z,30.20
2023-02-11T12:28:29.845Z,26.20
2023-02-11T12:31:38.744Z,26.90
2023-02-11T12:34:35.759Z,33.90
2023-02-11T12:37:35.213Z,29.10
2023-02-11T12:40:47.542Z,65.10
2023-02-11T12:43:24.568Z,57.80
2023-02-11T12:46:04.169Z,42.50
2023-02-11T12:48:48.575Z,45.60
2023-02-11T12:52:05.249Z,33.00
2023-02-11T12:54:42.852Z,34.00
2023-02-11T12:57:20.153Z,31.10
2023-02-11T12:59:56.872Z,28.70
2023-02-11T13:03:00.449Z,33.60
2023-02-11T13:05:52.713Z,37.00
2023-02-11T13:08:34.384Z,34.80
2023-02-11T13:11:08.759Z,33.70
2023-02-11T13:13:56.968Z,36.20
2023-02-11T13:16:28.505Z,34.00
2023-02-11T13:19:15.672Z,37.90
2023-02-11T13:22:17.431Z,35.40
2023-02-11T13:25:03.117Z,34.70
2023-02-11T13:27:43.996Z,30.00
2023-02-11T13:30:35.678Z,32.90
2023-02-11T13:33:07.794Z,46.40
2023-02-11T13:35:38.562Z,31.20
2023-02-11T13:38:23.379Z,47.00
2023-02-11T13:41:18.608Z,53.50
2023-02-11T13:43:59.276Z,46.90
2023-02-11T13:46:30.946Z,30.30
2023-02-11T13:48:59.855Z,28.40
2023-02-11T13:51:39.768Z,30.60
2023-02-11T13:54:19.125Z,39.60
2023-02-11T13:57:20.248Z,44.00
2023-02-11T14:00:04.007Z,42.30
2023-02-11T14:02:56.641Z,27.00
2023-02-11T14:05:52.168Z,33.00
2023-02-11T14:08:42.137Z,34.90
2023-02-11T14:11:33.600Z,38.20
2023-02-11T14:14:18.631Z,30.40
2023-02-11T14:17:20.482Z,31.50
2023-02-11T14:19:51.841Z,22.80
2023-02-11T14:22:26.846Z,28.10
2023-02-11T14:24:57.599Z,23.30
2023-02-11T14:27:47.186Z,21.80
2023-02-11T14:30:35.286Z,19.20
2023-02-11T14:33:14.707Z,19.20
2023-02-11T14:35:52.606Z,26.00
2023-02-11T14:38:39.395Z,38.00
2023-02-11T14:41:32.133Z,28.40
2023-02-11T14:44:20.002Z,24.80
2023-02-11T14:46:52.944Z,17.20
2023-02-11T14:49:29.122Z,17.50
2023-02-11T14:52:08.844Z,16.60
2023-02-11T14:54:38.028Z,15.60
2023-02-11T14:57:17.968Z,16.10
2023-02-11T15:00:03.077Z,15.10
2023-02-11T15:02:38.788Z,16.10
2023-02-11T15:05:16.358Z,17.30
2023-02-11T15:07:57.427Z,18.50
2023-02-11T15:10:37.285Z,21.00
2023-02-11T15:15:39.405Z,17.70
2023-02-11T15:18:10.044Z,15.20
2023-02-11T15:23:21.290Z,16.10
2023-02-11T15:25:56.666Z,35.70
2023-02-11T15:28:32.161Z,28.70
2023-02-11T15:31:16.546Z,44.70
2023-02-11T15:33:46.661Z,20.10
2023-02-11T15:36:17.334Z,23.50
2023-02-11T15:38:46.080Z,18.50
2023-02-11T15:41:45.380Z,19.70
2023-02-11T15:44:34.918Z,20.50
2023-02-11T15:47:10.981Z,24.90
2023-02-11T15:49:45.436Z,28.80
2023-02-11T15:52:22.512Z,24.80
2023-02-11T15:54:54.120Z,18.00
2023-02-11T15:57:24.910Z,24.30
2023-02-11T15:59:55.608Z,24.70
2023-02-11T16:02:37.283Z,21.40
2023-02-11T16:05:09.286Z,22.60
2023-02-11T16:07:53.112Z,25.20
2023-02-11T16:10:35.726Z,23.50
2023-02-11T16:13:20.584Z,15.50
2023-02-11T16:16:05.893Z,20.20
2023-02-11T16:18:40.487Z,30.40
2023-02-11T16:21:17.181Z,20.50
2023-02-11T16:23:53.757Z,23.30
2023-02-11T16:26:27.957Z,25.00
2023-02-11T16:29:11.820Z,29.20
2023-02-11T16:31:43.542Z,30.30
2023-02-11T16:34:26.218Z,28.40
2023-02-11T16:36:55.426Z,34.10
2023-02-11T16:39:24.605Z,24.20
2023-02-11T16:41:53.646Z,22.00
2023-02-11T16:44:22.639Z,23.40
2023-02-11T16:46:53.108Z,23.00
2023-02-11T16:49:28.412Z,24.40
2023-02-11T16:52:03.374Z,22.40
2023-02-11T16:54:32.299Z,23.30
2023-02-11T16:57:02.344Z,15.70
2023-02-11T16:59:30.912Z,18.40
2023-02-11T17:01:59.633Z,17.50
2023-02-11T17:04:31.747Z,23.70
2023-02-11T17:07:01.060Z,22.40
2023-02-11T17:09:31.194Z,22.70
2023-02-11T17:12:03.849Z,17.10
2023-02-11T17:14:32.918Z,19.50
2023-02-11T17:17:02.130Z,17.40
2023-02-11T17:19:31.427Z,18.80
2023-02-11T17:22:00.282Z,20.20
2023-02-11T17:24:29.350Z,17.90
2023-02-11T17:26:58.626Z,17.20
2023-02-11T17:29:27.596Z,13.20
2023-02-11T17:31:56.222Z,12.40
2023-02-11T17:34:25.911Z,12.90
2023-02-11T17:39:24.458Z,11.70
2023-02-11T17:41:53.358Z,14.10
2023-02-11T17:44:22.019Z,14.10
2023-02-11T17:46:50.667Z,11.70
2023-02-11T17:49:20.737Z,11.30
2023-02-11T17:51:49.668Z,33.10
2023-02-11T17:54:21.947Z,28.80
2023-02-11T17:56:51.052Z,18.40
2023-02-11T17:59:20.089Z,15.70
2023-02-11T18:01:49.059Z,13.00
2023-02-11T18:04:28.121Z,15.30
2023-02-11T18:07:19.221Z,16.00
2023-02-11T18:10:04.328Z,14.40
2023-02-11T18:12:51.021Z,14.20
2023-02-11T18:15:41.048Z,16.00
2023-02-11T18:21:31.388Z,15.50
2023-02-11T18:24:21.160Z,12.10
2023-02-11T18:27:15.885Z,12.60
2023-02-11T18:30:01.999Z,21.50
2023-02-11T18:32:50.319Z,15.60
2023-02-11T18:35:36.927Z,15.30
2023-02-11T18:38:43.779Z,14.40
2023-02-11T18:41:38.958Z,26.20
2023-02-11T18:44:23.350Z,20.50
2023-02-11T18:47:25.422Z,15.30
2023-02-11T18:50:10.319Z,15.00
2023-02-11T18:52:40.280Z,14.60
2023-02-11T18:55:10.023Z,13.90
2023-02-11T18:57:38.740Z,18.70
2023-02-11T19:00:10.428Z,21.70
2023-02-11T19:02:39.300Z,16.70
2023-02-11T19:05:08.146Z,16.10
2023-02-11T19:07:37.424Z,13.70
2023-02-11T19:10:07.244Z,15.20
2023-02-11T19:12:36.135Z,13.70
2023-02-11T19:15:06.906Z,11.40
2023-02-11T19:17:35.953Z,15.40
2023-02-11T19:20:06.345Z,16.00
2023-02-11T19:22:35.704Z,19.10
2023-02-11T19:25:04.671Z,16.60
2023-02-11T19:27:33.645Z,14.90
2023-02-11T19:30:02.396Z,15.30
2023-02-11T19:32:31.724Z,15.70
2023-02-11T19:35:04.631Z,18.40
2023-02-11T19:37:33.665Z,15.80
2023-02-11T19:40:02.306Z,17.80
2023-02-11T19:42:31.100Z,15.90
2023-02-11T19:45:00.029Z,14.90
2023-02-11T19:47:28.598Z,15.50
2023-02-11T19:50:11.019Z,13.00
2023-02-11T19:52:46.527Z,15.90
2023-02-11T19:55:15.482Z,23.00
2023-02-11T19:57:44.327Z,25.70
2023-02-11T20:00:13.437Z,41.40
2023-02-11T20:02:43.826Z,16.80
2023-02-11T20:05:13.709Z,18.20
2023-02-11T20:07:42.434Z,16.40
2023-02-11T20:10:11.690Z,16.10
2023-02-11T20:12:40.447Z,12.20
2023-02-11T20:15:09.548Z,20.70
2023-02-11T20:17:38.222Z,13.70
2023-02-11T20:20:07.301Z,13.30
2023-02-11T20:22:36.192Z,15.30
2023-02-11T20:25:05.645Z,13.10
2023-02-11T20:27:34.547Z,18.10
2023-02-11T20:30:04.203Z,17.00
2023-02-11T20:32:38.768Z,17.20
2023-02-11T20:35:09.111Z,17.60
2023-02-11T20:37:39.876Z,21.00
2023-02-11T20:40:09.852Z,35.10
2023-02-11T20:42:38.409Z,22.30
2023-02-11T20:45:07.640Z,19.50
2023-02-11T20:47:38.462Z,20.10
2023-02-11T20:50:07.899Z,19.50
2023-02-11T20:52:37.209Z,19.00
2023-02-11T20:55:07.198Z,22.50
2023-02-11T20:57:35.870Z,24.90
2023-02-11T21:00:04.880Z,23.50
2023-02-11T21:02:33.953Z,23.90
2023-02-11T21:05:02.653Z,22.60
2023-02-11T21:07:31.841Z,21.70
2023-02-11T21:10:00.717Z,22.20
2023-02-11T21:12:29.584Z,19.20
2023-02-11T21:14:59.284Z,20.00
2023-02-11T21:17:31.583Z,20.80
2023-02-11T21:20:00.592Z,20.30
2023-02-11T21:22:29.936Z,21.00
2023-02-11T21:24:58.580Z,19.30
2023-02-11T21:27:32.573Z,25.90
2023-02-11T21:30:01.871Z,31.30
2023-02-11T21:32:30.941Z,37.50
2023-02-11T21:35:02.182Z,26.10
2023-02-11T21:37:31.640Z,22.20
2023-02-11T21:40:00.628Z,18.10
2023-02-11T21:42:30.107Z,22.10
2023-02-11T21:44:59.157Z,24.80
2023-02-11T21:47:28.244Z,22.20
2023-02-11T21:49:59.015Z,23.80
2023-02-11T21:52:27.886Z,20.90
2023-02-11T21:54:56.870Z,19.70
2023-02-11T21:57:25.705Z,24.00
2023-02-11T21:59:54.854Z,17.80
2023-02-11T22:02:24.006Z,20.90
2023-02-11T22:04:53.165Z,19.50
2023-02-11T22:07:23.020Z,24.10
2023-02-11T22:09:52.894Z,25.90
2023-02-11T22:12:22.755Z,20.30
2023-02-11T22:14:51.984Z,18.60
2023-02-11T22:17:20.790Z,22.80
2023-02-11T22:19:49.908Z,18.50
2023-02-11T22:22:20.052Z,14.20
2023-02-11T22:24:49.189Z,15.40
2023-02-11T22:27:20.204Z,19.20
2023-02-11T22:29:49.108Z,17.80
2023-02-11T22:32:18.466Z,18.00
2023-02-11T22:34:47.012Z,23.20
2023-02-11T22:37:15.758Z,19.50
2023-02-11T22:39:44.540Z,19.30
2023-02-11T22:42:13.182Z,17.30
2023-02-11T22:44:42.131Z,18.10
2023-02-11T22:47:10.933Z,16.30
2023-02-11T22:49:41.174Z,19.10
2023-02-11T22:52:09.979Z,18.30
2023-02-11T22:54:39.250Z,21.50
2023-02-11T22:57:07.786Z,99.80
2023-02-11T22:59:36.826Z,27.60
2023-02-11T23:02:05.850Z,18.60
2023-02-11T23:04:34.386Z,18.60
2023-02-11T23:07:03.252Z,16.30
2023-02-11T23:09:32.270Z,15.20
2023-02-11T23:12:00.830Z,15.00
2023-02-11T23:14:29.761Z,17.10
2023-02-11T23:16:59.036Z,21.50
2023-02-11T23:19:27.697Z,19.50
2023-02-11T23:21:56.573Z,18.50
2023-02-11T23:24:25.887Z,22.00
2023-02-11T23:26:54.772Z,18.50
2023-02-11T23:29:23.957Z,19.90
2023-02-11T23:31:52.998Z,19.40
2023-02-11T23:34:25.581Z,18.70
2023-02-11T23:36:54.900Z,20.10
2023-02-11T23:39:23.645Z,20.40
2023-02-11T23:41:59.591Z,20.70
2023-02-11T23:44:28.965Z,23.70
2023-02-11T23:46:57.680Z,26.00
2023-02-11T23:49:26.677Z,19.80
2023-02-11T23:51:55.670Z,24.80
2023-02-11T23:54:24.273Z,22.00
2023-02-11T23:56:53.399Z,23.10
2023-02-11T23:59:22.602Z,22.90
